sensor_id;sensor_type;location;lat;lon;timestamp;pressure;altitude;pressure_sealevel;temperature;humidity
70434;BME280;57876;47.792;12.960;2023-04-02T00:02:45;96015.03;;;14.34;47.11
70434;BME280;57876;47.792;12.960;2023-04-02T00:07:39;96013.09;;;14.35;47.15
70434;BME280;57876;47.792;12.960;2023-04-02T00:10:04;96007.19;;;14.32;47.07
70434;BME280;57876;47.792;12.960;2023-04-02T00:13:03;96000.66;;;14.34;46.71
70434;BME280;57876;47.792;12.960;2023-04-02T00:15:27;95997.94;;;14.34;46.84
70434;BME280;57876;47.792;12.960;2023-04-02T00:17:52;95996.78;;;14.35;46.90
70434;BME280;57876;47.792;12.960;2023-04-02T00:20:17;96004.47;;;14.32;46.99
70434;BME280;57876;47.792;12.960;2023-04-02T00:22:43;96013.09;;;14.35;46.91
70434;BME280;57876;47.792;12.960;2023-04-02T00:25:12;96016.16;;;14.33;47.06
70434;BME280;57876;47.792;12.960;2023-04-02T00:27:36;96015.81;;;14.35;47.10
70434;BME280;57876;47.792;12.960;2023-04-02T00:30:01;96030.56;;;14.34;46.92
70434;BME280;57876;47.792;12.960;2023-04-02T00:32:30;96029.13;;;14.36;47.13
70434;BME280;57876;47.792;12.960;2023-04-02T00:34:56;96022.41;;;14.34;47.20
70434;BME280;57876;47.792;12.960;2023-04-02T00:37:23;96034.06;;;14.34;47.21
70434;BME280;57876;47.792;12.960;2023-04-02T00:40:04;96028.94;;;14.32;46.86
70434;BME280;57876;47.792;12.960;2023-04-02T00:42:34;96024.31;;;14.33;47.22
70434;BME280;57876;47.792;12.960;2023-04-02T00:45:00;96019.69;;;14.34;47.01
70434;BME280;57876;47.792;12.960;2023-04-02T00:47:30;96027.84;;;14.34;46.87
70434;BME280;57876;47.792;12.960;2023-04-02T00:50:14;96016.16;;;14.33;46.93
70434;BME280;57876;47.792;12.960;2023-04-02T00:52:43;96026.72;;;14.35;47.04
70434;BME280;57876;47.792;12.960;2023-04-02T00:55:16;96015.81;;;14.35;47.11
70434;BME280;57876;47.792;12.960;2023-04-02T00:57:44;96021.59;;;14.33;47.05
70434;BME280;57876;47.792;12.960;2023-04-02T01:00:19;96024.00;;;14.35;47.13
70434;BME280;57876;47.792;12.960;2023-04-02T01:05:57;96016.97;;;14.34;47.04
70434;BME280;57876;47.792;12.960;2023-04-02T01:25:33;96021.94;;;14.31;47.13
70434;BME280;57876;47.792;12.960;2023-04-02T01:28:08;96031.66;;;14.32;46.95
70434;BME280;57876;47.792;12.960;2023-04-02T01:30:35;96020.00;;;14.32;47.30
70434;BME280;57876;47.792;12.960;2023-04-02T01:33:00;96023.50;;;14.32;47.14
70434;BME280;57876;47.792;12.960;2023-04-02T01:35:26;96022.41;;;14.34;47.01
70434;BME280;57876;47.792;12.960;2023-04-02T01:38:08;96034.41;;;14.32;47.13
70434;BME280;57876;47.792;12.960;2023-04-02T01:40:55;96034.41;;;14.32;47.06
70434;BME280;57876;47.792;12.960;2023-04-02T01:43:31;96037.13;;;14.32;47.04
70434;BME280;57876;47.792;12.960;2023-04-02T01:45:59;96037.13;;;14.32;47.15
70434;BME280;57876;47.792;12.960;2023-04-02T01:48:29;96041.44;;;14.34;46.87
70434;BME280;57876;47.792;12.960;2023-04-02T01:50:55;96035.19;;;14.33;46.87
70434;BME280;57876;47.792;12.960;2023-04-02T01:53:22;96024.16;;;14.29;47.03
70434;BME280;57876;47.792;12.960;2023-04-02T01:55:54;96026.56;;;14.31;47.09
70434;BME280;57876;47.792;12.960;2023-04-02T01:58:21;96030.88;;;14.32;47.14
70434;BME280;57876;47.792;12.960;2023-04-02T02:00:58;96020.00;;;14.32;47.05
70434;BME280;57876;47.792;12.960;2023-04-02T02:03:25;96028.94;;;14.32;46.83
70434;BME280;57876;47.792;12.960;2023-04-02T02:05:50;96022.72;;;14.32;47.13
70434;BME280;57876;47.792;12.960;2023-04-02T02:08:24;96024.97;;;14.30;46.97
70434;BME280;57876;47.792;12.960;2023-04-02T02:10:50;96029.75;;;14.33;47.30
70434;BME280;57876;47.792;12.960;2023-04-02T02:13:15;96034.41;;;14.32;47.01
70434;BME280;57876;47.792;12.960;2023-04-02T02:15:39;96039.03;;;14.32;47.08
70434;BME280;57876;47.792;12.960;2023-04-02T02:18:05;96039.84;;;14.32;47.02
70434;BME280;57876;47.792;12.960;2023-04-02T02:20:31;96045.63;;;14.31;47.38
70434;BME280;57876;47.792;12.960;2023-04-02T02:22:56;96039.84;;;14.32;46.92
70434;BME280;57876;47.792;12.960;2023-04-02T02:25:25;96043.69;;;14.31;47.44
70434;BME280;57876;47.792;12.960;2023-04-02T02:28:09;96044.00;;;14.30;47.27
70434;BME280;57876;47.792;12.960;2023-04-02T02:30:41;96049.13;;;14.31;47.06
70434;BME280;57876;47.792;12.960;2023-04-02T02:36:30;96058.88;;;14.32;47.47
70434;BME280;57876;47.792;12.960;2023-04-02T02:41:40;96052.16;;;14.30;47.09
70434;BME280;57876;47.792;12.960;2023-04-02T02:46:38;96051.38;;;14.29;47.01
70434;BME280;57876;47.792;12.960;2023-04-02T02:49:05;96055.69;;;14.30;47.06
70434;BME280;57876;47.792;12.960;2023-04-02T02:51:44;96058.41;;;14.30;47.26
70434;BME280;57876;47.792;12.960;2023-04-02T02:54:10;96054.56;;;14.31;46.94
70434;BME280;57876;47.792;12.960;2023-04-02T02:56:40;96058.41;;;14.30;47.01
70434;BME280;57876;47.792;12.960;2023-04-02T02:59:08;96068.47;;;14.30;47.00
70434;BME280;57876;47.792;12.960;2023-04-02T03:01:34;96066.25;;;14.32;46.69
70434;BME280;57876;47.792;12.960;2023-04-02T03:03:59;96075.53;;;14.31;46.95
70434;BME280;57876;47.792;12.960;2023-04-02T03:06:24;96079.84;;;14.32;46.77
70434;BME280;57876;47.792;12.960;2023-04-02T03:17:02;96080.16;;;14.30;47.06
70434;BME280;57876;47.792;12.960;2023-04-02T03:19:34;96086.41;;;14.31;46.96
70434;BME280;57876;47.792;12.960;2023-04-02T03:24:51;96089.94;;;14.31;46.81
70434;BME280;57876;47.792;12.960;2023-04-02T03:27:33;96095.69;;;14.30;47.00
70434;BME280;57876;47.792;12.960;2023-04-02T03:32:31;96093.31;;;14.28;47.09
70434;BME280;57876;47.792;12.960;2023-04-02T03:35:02;96096.47;;;14.30;47.21
70434;BME280;57876;47.792;12.960;2023-04-02T03:37:45;96090.25;;;14.30;46.77
70434;BME280;57876;47.792;12.960;2023-04-02T03:40:30;96101.91;;;14.30;47.06
70434;BME280;57876;47.792;12.960;2023-04-02T03:43:20;96093.75;;;14.30;46.97
70434;BME280;57876;47.792;12.960;2023-04-02T03:46:13;96098.75;;;14.28;47.18
70434;BME280;57876;47.792;12.960;2023-04-02T03:48:41;96095.69;;;14.30;46.99
70434;BME280;57876;47.792;12.960;2023-04-02T03:51:13;96091.03;;;14.30;47.00
70434;BME280;57876;47.792;12.960;2023-04-02T03:53:42;96101.13;;;14.30;46.87
70434;BME280;57876;47.792;12.960;2023-04-02T03:56:11;96096.47;;;14.30;47.14
70434;BME280;57876;47.792;12.960;2023-04-02T03:58:46;96101.47;;;14.28;47.04
70434;BME280;57876;47.792;12.960;2023-04-02T04:01:19;96096.47;;;14.30;46.97
70434;BME280;57876;47.792;12.960;2023-04-02T04:03:55;96099.84;;;14.27;47.06
70434;BME280;57876;47.792;12.960;2023-04-02T04:06:25;96112.00;;;14.30;47.23
70434;BME280;57876;47.792;12.960;2023-04-02T04:12:31;96125.59;;;14.30;47.23
70434;BME280;57876;47.792;12.960;2023-04-02T04:15:11;96112.66;;;14.27;47.07
70434;BME280;57876;47.792;12.960;2023-04-02T04:20:52;96115.06;;;14.28;47.07
70434;BME280;57876;47.792;12.960;2023-04-02T04:23:32;96121.31;;;14.29;47.12
70434;BME280;57876;47.792;12.960;2023-04-02T04:26:11;96123.53;;;14.27;47.18
70434;BME280;57876;47.792;12.960;2023-04-02T04:31:18;96136.81;;;14.28;47.18
70434;BME280;57876;47.792;12.960;2023-04-02T04:33:49;96142.25;;;14.28;47.02
70434;BME280;57876;47.792;12.960;2023-04-02T04:36:54;96142.25;;;14.28;47.10
70434;BME280;57876;47.792;12.960;2023-04-02T04:42:00;96148.81;;;14.27;46.93
70434;BME280;57876;47.792;12.960;2023-04-02T04:44:50;96151.22;;;14.29;46.91
70434;BME280;57876;47.792;12.960;2023-04-02T04:47:20;96151.53;;;14.27;47.06
70434;BME280;57876;47.792;12.960;2023-04-02T04:50:03;96152.31;;;14.28;47.03
70434;BME280;57876;47.792;12.960;2023-04-02T04:52:36;96159.38;;;14.29;47.14
70434;BME280;57876;47.792;12.960;2023-04-02T04:55:02;96158.59;;;14.28;47.04
70434;BME280;57876;47.792;12.960;2023-04-02T04:57:33;96156.97;;;14.27;46.99
70434;BME280;57876;47.792;12.960;2023-04-02T05:00:06;96170.25;;;14.29;47.04
70434;BME280;57876;47.792;12.960;2023-04-02T05:02:45;96163.19;;;14.28;46.98
70434;BME280;57876;47.792;12.960;2023-04-02T05:05:28;96169.47;;;14.28;47.02
70434;BME280;57876;47.792;12.960;2023-04-02T05:08:20;96156.50;;;14.25;47.16
70434;BME280;57876;47.792;12.960;2023-04-02T05:10:55;96167.84;;;14.27;47.10
70434;BME280;57876;47.792;12.960;2023-04-02T05:13:32;96167.84;;;14.27;47.07
70434;BME280;57876;47.792;12.960;2023-04-02T05:16:12;96167.84;;;14.27;46.91
70434;BME280;57876;47.792;12.960;2023-04-02T05:18:43;96177.13;;;14.26;47.25
70434;BME280;57876;47.792;12.960;2023-04-02T05:21:32;96181.13;;;14.29;46.99
70434;BME280;57876;47.792;12.960;2023-04-02T05:24:27;96181.13;;;14.29;47.07
70434;BME280;57876;47.792;12.960;2023-04-02T05:27:00;96179.88;;;14.26;46.80
70434;BME280;57876;47.792;12.960;2023-04-02T05:29:31;96181.44;;;14.27;47.16
70434;BME280;57876;47.792;12.960;2023-04-02T05:32:01;96195.84;;;14.28;47.11
70434;BME280;57876;47.792;12.960;2023-04-02T05:34:31;96202.09;;;14.28;47.16
70434;BME280;57876;47.792;12.960;2023-04-02T05:36:58;96197.47;;;14.29;47.07
70434;BME280;57876;47.792;12.960;2023-04-02T05:39:24;96204.81;;;14.28;47.09
70434;BME280;57876;47.792;12.960;2023-04-02T05:42:00;96200.50;;;14.27;47.07
70434;BME280;57876;47.792;12.960;2023-04-02T05:44:29;96212.16;;;14.28;47.14
70434;BME280;57876;47.792;12.960;2023-04-02T05:49:29;96233.63;;;14.29;47.32
70434;BME280;57876;47.792;12.960;2023-04-02T05:51:57;96231.19;;;14.28;47.15
70434;BME280;57876;47.792;12.960;2023-04-02T05:54:30;96239.06;;;14.29;47.05
70434;BME280;57876;47.792;12.960;2023-04-02T05:57:05;96244.00;;;14.27;46.88
70434;BME280;57876;47.792;12.960;2023-04-02T05:59:36;96227.53;;;14.24;46.95
70434;BME280;57876;47.792;12.960;2023-04-02T06:05:06;96247.22;;;14.29;47.06
70434;BME280;57876;47.792;12.960;2023-04-02T06:08:34;96245.13;;;14.26;47.19
70434;BME280;57876;47.792;12.960;2023-04-02T06:10:47;96253.78;;;14.28;46.95
70434;BME280;57876;47.792;12.960;2023-04-02T06:13:17;96256.50;;;14.28;46.75
70434;BME280;57876;47.792;12.960;2023-04-02T06:15:45;96261.94;;;14.28;47.29
70434;BME280;57876;47.792;12.960;2023-04-02T06:18:19;96272.00;;;14.28;46.81
70434;BME280;57876;47.792;12.960;2023-04-02T06:20:45;96261.78;;;14.25;47.08
70434;BME280;57876;47.792;12.960;2023-04-02T06:26:08;96272.81;;;14.28;46.86
70434;BME280;57876;47.792;12.960;2023-04-02T06:28:42;96265.47;;;14.29;46.99
70434;BME280;57876;47.792;12.960;2023-04-02T06:31:58;96263.06;;;14.27;46.87
70434;BME280;57876;47.792;12.960;2023-04-02T06:34:00;96273.94;;;14.27;47.05
70434;BME280;57876;47.792;12.960;2023-04-02T06:36:27;96283.72;;;14.28;46.99
70434;BME280;57876;47.792;12.960;2023-04-02T06:39:03;96274.25;;;14.26;46.95
70434;BME280;57876;47.792;12.960;2023-04-02T06:41:29;96280.81;;;14.25;46.99
70434;BME280;57876;47.792;12.960;2023-04-02T06:44:04;96285.94;;;14.26;46.98
70434;BME280;57876;47.792;12.960;2023-04-02T06:46:43;96282.72;;;14.24;47.16
70434;BME280;57876;47.792;12.960;2023-04-02T06:49:31;96283.53;;;14.25;46.77
70434;BME280;57876;47.792;12.960;2023-04-02T06:52:00;96295.19;;;14.25;47.02
70434;BME280;57876;47.792;12.960;2023-04-02T06:54:26;96302.25;;;14.26;47.03
70434;BME280;57876;47.792;12.960;2023-04-02T06:56:52;96303.06;;;14.27;47.23
70434;BME280;57876;47.792;12.960;2023-04-02T06:59:18;96306.09;;;14.25;46.99
70434;BME280;57876;47.792;12.960;2023-04-02T07:02:04;96311.22;;;14.27;47.28
70434;BME280;57876;47.792;12.960;2023-04-02T07:05:05;96311.06;;;14.23;46.75
70434;BME280;57876;47.792;12.960;2023-04-02T07:07:32;96310.41;;;14.26;47.13
70434;BME280;57876;47.792;12.960;2023-04-02T07:09:56;96325.13;;;14.25;46.77
70434;BME280;57876;47.792;12.960;2023-04-02T07:12:24;96321.31;;;14.26;46.84
70434;BME280;57876;47.792;12.960;2023-04-02T07:14:49;96320.50;;;14.26;47.21
70434;BME280;57876;47.792;12.960;2023-04-02T07:17:17;96323.22;;;14.26;46.80
70434;BME280;57876;47.792;12.960;2023-04-02T07:19:41;96322.41;;;14.25;46.69
70434;BME280;57876;47.792;12.960;2023-04-02T07:22:08;96336.19;;;14.29;46.92
70434;BME280;57876;47.792;12.960;2023-04-02T07:24:36;96333.47;;;14.29;46.96
70434;BME280;57876;47.792;12.960;2023-04-02T07:27:00;96340.00;;;14.28;47.29
70434;BME280;57876;47.792;12.960;2023-04-02T07:29:25;96334.91;;;14.26;46.96
70434;BME280;57876;47.792;12.960;2023-04-02T07:31:49;96338.09;;;14.28;46.89
70434;BME280;57876;47.792;12.960;2023-04-02T07:34:15;96341.63;;;14.29;46.85
70434;BME280;57876;47.792;12.960;2023-04-02T07:36:40;96342.41;;;14.29;47.18
70434;BME280;57876;47.792;12.960;2023-04-02T07:39:04;96343.56;;;14.28;46.81
70434;BME280;57876;47.792;12.960;2023-04-02T07:41:29;96350.56;;;14.29;47.13
70434;BME280;57876;47.792;12.960;2023-04-02T07:43:53;96349.78;;;14.29;46.92
70434;BME280;57876;47.792;12.960;2023-04-02T07:46:18;96344.66;;;14.27;47.03
70434;BME280;57876;47.792;12.960;2023-04-02T07:48:44;96345.13;;;14.29;46.95
70434;BME280;57876;47.792;12.960;2023-04-02T07:51:34;96356.03;;;14.29;46.64
70434;BME280;57876;47.792;12.960;2023-04-02T07:54:00;96356.03;;;14.29;46.97
70434;BME280;57876;47.792;12.960;2023-04-02T07:56:26;96354.44;;;14.28;46.80
70434;BME280;57876;47.792;12.960;2023-04-02T07:58:51;96359.53;;;14.30;47.09
70434;BME280;57876;47.792;12.960;2023-04-02T08:01:21;96364.47;;;14.28;46.90
70434;BME280;57876;47.792;12.960;2023-04-02T08:03:49;96364.97;;;14.30;46.92
70434;BME280;57876;47.792;12.960;2023-04-02T08:06:14;96373.94;;;14.30;47.06
70434;BME280;57876;47.792;12.960;2023-04-02T08:08:39;96369.63;;;14.29;46.98
70434;BME280;57876;47.792;12.960;2023-04-02T08:11:04;96373.13;;;14.30;47.00
70434;BME280;57876;47.792;12.960;2023-04-02T08:13:29;96375.84;;;14.30;46.80
70434;BME280;57876;47.792;12.960;2023-04-02T08:15:58;96366.91;;;14.29;46.97
70434;BME280;57876;47.792;12.960;2023-04-02T08:18:22;96379.38;;;14.30;47.09
70434;BME280;57876;47.792;12.960;2023-04-02T08:20:46;96377.78;;;14.29;46.83
70434;BME280;57876;47.792;12.960;2023-04-02T08:23:13;96379.38;;;14.30;47.08
70434;BME280;57876;47.792;12.960;2023-04-02T08:25:38;96380.19;;;14.31;46.94
70434;BME280;57876;47.792;12.960;2023-04-02T08:28:03;96382.09;;;14.30;46.75
70434;BME280;57876;47.792;12.960;2023-04-02T08:30:27;96384.81;;;14.30;47.06
70434;BME280;57876;47.792;12.960;2023-04-02T08:32:51;96372.34;;;14.29;47.21
70434;BME280;57876;47.792;12.960;2023-04-02T08:35:16;96376.66;;;14.30;47.00
70434;BME280;57876;47.792;12.960;2023-04-02T08:37:41;96387.53;;;14.30;46.79
70434;BME280;57876;47.792;12.960;2023-04-02T08:40:07;96375.38;;;14.28;47.10
70434;BME280;57876;47.792;12.960;2023-04-02T08:43:06;96383.22;;;14.29;46.94
70434;BME280;57876;47.792;12.960;2023-04-02T08:48:19;96388.66;;;14.29;47.06
70434;BME280;57876;47.792;12.960;2023-04-02T08:50:44;96400.03;;;14.31;46.86
70434;BME280;57876;47.792;12.960;2023-04-02T08:53:14;96402.75;;;14.31;46.74
70434;BME280;57876;47.792;12.960;2023-04-02T08:58:19;96398.41;;;14.30;46.76
70434;BME280;57876;47.792;12.960;2023-04-02T09:00:52;96400.34;;;14.30;46.96
70434;BME280;57876;47.792;12.960;2023-04-02T09:03:23;96403.06;;;14.30;46.97
70434;BME280;57876;47.792;12.960;2023-04-02T09:05:50;96399.53;;;14.29;46.51
70434;BME280;57876;47.792;12.960;2023-04-02T09:08:20;96406.56;;;14.30;46.79
70434;BME280;57876;47.792;12.960;2023-04-02T09:13:43;96405.47;;;14.31;46.89
70434;BME280;57876;47.792;12.960;2023-04-02T09:16:11;96415.56;;;14.31;46.77
70434;BME280;57876;47.792;12.960;2023-04-02T09:18:36;96412.00;;;14.30;46.99
70434;BME280;57876;47.792;12.960;2023-04-02T09:21:53;96412.84;;;14.31;47.04
70434;BME280;57876;47.792;12.960;2023-04-02T09:23:51;96422.91;;;14.30;46.91
70434;BME280;57876;47.792;12.960;2023-04-02T09:26:26;96411.06;;;14.26;46.64
70434;BME280;57876;47.792;12.960;2023-04-02T09:29:00;96417.78;;;14.29;46.68
70434;BME280;57876;47.792;12.960;2023-04-02T09:31:44;96426.75;;;14.29;47.10
70434;BME280;57876;47.792;12.960;2023-04-02T09:36:55;96429.94;;;14.31;46.77
70434;BME280;57876;47.792;12.960;2023-04-02T09:39:24;96433.47;;;14.32;47.21
70434;BME280;57876;47.792;12.960;2023-04-02T09:41:54;96436.97;;;14.32;46.93
70434;BME280;57876;47.792;12.960;2023-04-02T09:44:23;96434.41;;;14.27;46.93
70434;BME280;57876;47.792;12.960;2023-04-02T09:46:49;96442.44;;;14.32;47.13
70434;BME280;57876;47.792;12.960;2023-04-02T09:49:16;96438.91;;;14.32;46.96
70434;BME280;57876;47.792;12.960;2023-04-02T09:51:43;96444.03;;;14.34;47.03
70434;BME280;57876;47.792;12.960;2023-04-02T09:54:13;96434.75;;;14.35;47.21
70434;BME280;57876;47.792;12.960;2023-04-02T09:56:39;96439.25;;;14.48;47.01
70434;BME280;57876;47.792;12.960;2023-04-02T09:59:15;96437.81;;;14.50;47.36
70434;BME280;57876;47.792;12.960;2023-04-02T10:01:46;96447.44;;;14.57;47.29
70434;BME280;57876;47.792;12.960;2023-04-02T10:04:40;96448.09;;;14.62;47.30
70434;BME280;57876;47.792;12.960;2023-04-02T10:13:05;96444.72;;;14.65;47.51
70434;BME280;57876;47.792;12.960;2023-04-02T10:15:43;96445.22;;;14.67;47.37
70434;BME280;57876;47.792;12.960;2023-04-02T10:20:54;96443.47;;;14.71;47.33
70434;BME280;57876;47.792;12.960;2023-04-02T10:23:23;96440.25;;;14.69;47.32
70434;BME280;57876;47.792;12.960;2023-04-02T10:28:54;96449.84;;;14.75;47.41
70434;BME280;57876;47.792;12.960;2023-04-02T10:31:39;96455.31;;;14.75;47.37
70434;BME280;57876;47.792;12.960;2023-04-02T10:34:20;96455.31;;;14.75;47.17
70434;BME280;57876;47.792;12.960;2023-04-02T10:36:51;96449.56;;;14.77;47.23
70434;BME280;57876;47.792;12.960;2023-04-02T10:39:46;96454.66;;;14.79;47.27
70434;BME280;57876;47.792;12.960;2023-04-02T10:50:36;96454.03;;;14.82;47.34
70434;BME280;57876;47.792;12.960;2023-04-02T10:53:10;96448.59;;;14.82;47.19
70434;BME280;57876;47.792;12.960;2023-04-02T10:55:41;96451.31;;;14.82;47.40
70434;BME280;57876;47.792;12.960;2023-04-02T10:58:30;96448.25;;;14.83;47.13
70434;BME280;57876;47.792;12.960;2023-04-02T11:01:00;96459.16;;;14.83;47.04
70434;BME280;57876;47.792;12.960;2023-04-02T11:03:43;96460.78;;;14.84;47.17
70434;BME280;57876;47.792;12.960;2023-04-02T11:06:20;96462.34;;;14.85;47.06
70434;BME280;57876;47.792;12.960;2023-04-02T11:08:47;96465.09;;;14.85;47.17
70434;BME280;57876;47.792;12.960;2023-04-02T11:11:23;96465.22;;;14.89;47.27
70434;BME280;57876;47.792;12.960;2023-04-02T11:16:20;96462.53;;;14.97;47.22
70434;BME280;57876;47.792;12.960;2023-04-02T11:19:21;96455.63;;;15.00;47.37
70434;BME280;57876;47.792;12.960;2023-04-02T11:22:01;96467.81;;;15.03;47.35
70434;BME280;57876;47.792;12.960;2023-04-02T11:24:35;96462.81;;;15.05;47.53
70434;BME280;57876;47.792;12.960;2023-04-02T11:29:48;96473.06;;;15.08;47.32
70434;BME280;57876;47.792;12.960;2023-04-02T11:32:23;96477.91;;;15.11;47.28
70434;BME280;57876;47.792;12.960;2023-04-02T11:40:58;96486.38;;;15.09;47.23
70434;BME280;57876;47.792;12.960;2023-04-02T11:42:51;96481.59;;;15.06;47.40
70434;BME280;57876;47.792;12.960;2023-04-02T11:50:45;96492.00;;;15.04;47.38
70434;BME280;57876;47.792;12.960;2023-04-02T11:55:35;96504.31;;;15.02;47.44
70434;BME280;57876;47.792;12.960;2023-04-02T12:03:23;96500.81;;;15.01;47.36
70434;BME280;57876;47.792;12.960;2023-04-02T12:08:35;96508.19;;;15.01;47.53
70434;BME280;57876;47.792;12.960;2023-04-02T12:11:02;96503.03;;;14.99;47.36
70434;BME280;57876;47.792;12.960;2023-04-02T12:16:05;96517.16;;;15.01;47.41
70434;BME280;57876;47.792;12.960;2023-04-02T12:18:30;96521.78;;;15.01;47.39
70434;BME280;57876;47.792;12.960;2023-04-02T12:20:56;96529.16;;;15.00;47.48
70434;BME280;57876;47.792;12.960;2023-04-02T12:23:24;96529.16;;;15.00;47.16
70434;BME280;57876;47.792;12.960;2023-04-02T12:25:55;96532.69;;;15.01;47.32
70434;BME280;57876;47.792;12.960;2023-04-02T12:28:21;96540.53;;;15.02;47.35
70434;BME280;57876;47.792;12.960;2023-04-02T12:30:47;96540.53;;;15.02;47.26
70434;BME280;57876;47.792;12.960;2023-04-02T12:35:40;96543.25;;;15.02;47.61
70434;BME280;57876;47.792;12.960;2023-04-02T12:38:19;96538.78;;;14.97;47.72
70434;BME280;57876;47.792;12.960;2023-04-02T12:43:40;96550.63;;;15.02;47.27
70434;BME280;57876;47.792;12.960;2023-04-02T12:46:06;96537.34;;;15.00;47.55
70434;BME280;57876;47.792;12.960;2023-04-02T12:48:32;96538.13;;;15.01;47.10
70434;BME280;57876;47.792;12.960;2023-04-02T12:50:58;96545.50;;;15.00;47.24
70434;BME280;57876;47.792;12.960;2023-04-02T12:53:50;96546.47;;;15.04;47.42
70434;BME280;57876;47.792;12.960;2023-04-02T12:56:22;96552.25;;;15.03;47.33
70434;BME280;57876;47.792;12.960;2023-04-02T12:58:55;96546.94;;;14.97;47.42
70434;BME280;57876;47.792;12.960;2023-04-02T13:01:26;96549.03;;;15.01;47.48
70434;BME280;57876;47.792;12.960;2023-04-02T13:04:09;96537.97;;;14.97;47.37
70434;BME280;57876;47.792;12.960;2023-04-02T13:06:38;96548.06;;;14.96;47.42
70434;BME280;57876;47.792;12.960;2023-04-02T13:09:33;96551.91;;;15.04;47.50
70434;BME280;57876;47.792;12.960;2023-04-02T13:12:30;96547.41;;;15.00;47.24
70434;BME280;57876;47.792;12.960;2023-04-02T13:14:56;96550.31;;;15.03;47.51
70434;BME280;57876;47.792;12.960;2023-04-02T13:22:52;96563.13;;;15.03;47.04
70434;BME280;57876;47.792;12.960;2023-04-02T13:25:17;96563.94;;;15.03;47.52
70434;BME280;57876;47.792;12.960;2023-04-02T13:27:41;96561.22;;;15.03;47.22
70434;BME280;57876;47.792;12.960;2023-04-02T13:30:08;96559.94;;;15.01;47.68
70434;BME280;57876;47.792;12.960;2023-04-02T13:32:32;96565.53;;;15.04;47.26
70434;BME280;57876;47.792;12.960;2023-04-02T13:34:57;96564.72;;;15.04;47.32
70434;BME280;57876;47.792;12.960;2023-04-02T13:37:21;96567.44;;;15.04;47.36
70434;BME280;57876;47.792;12.960;2023-04-02T13:39:45;96563.94;;;15.03;47.36
70434;BME280;57876;47.792;12.960;2023-04-02T13:42:10;96564.38;;;15.05;47.37
70434;BME280;57876;47.792;12.960;2023-04-02T13:44:35;96569.03;;;15.05;47.25
70434;BME280;57876;47.792;12.960;2023-04-02T13:47:03;96564.09;;;15.07;47.54
70434;BME280;57876;47.792;12.960;2023-04-02T13:49:28;96573.53;;;15.09;47.49
70434;BME280;57876;47.792;12.960;2023-04-02T13:51:54;96566.97;;;15.10;47.37
70434;BME280;57876;47.792;12.960;2023-04-02T13:54:25;96568.09;;;15.09;47.52
70434;BME280;57876;47.792;12.960;2023-04-02T13:56:51;96572.09;;;15.12;47.39
70434;BME280;57876;47.792;12.960;2023-04-02T13:59:15;96577.56;;;15.12;47.29
70434;BME280;57876;47.792;12.960;2023-04-02T14:01:42;96559.44;;;15.07;47.39
70434;BME280;57876;47.792;12.960;2023-04-02T14:04:09;96573.38;;;15.06;47.84
70434;BME280;57876;47.792;12.960;2023-04-02T14:06:53;96572.56;;;15.05;47.80
70434;BME280;57876;47.792;12.960;2023-04-02T14:37:40;96564.53;;;14.83;47.70
70434;BME280;57876;47.792;12.960;2023-04-02T14:42:57;96582.66;;;14.96;47.82
70434;BME280;57876;47.792;12.960;2023-04-02T14:46:00;96572.25;;;14.98;47.56
70434;BME280;57876;47.792;12.960;2023-04-02T14:53:55;96584.44;;;15.01;47.38
70434;BME280;57876;47.792;12.960;2023-04-02T14:56:23;96576.25;;;15.01;48.08
70434;BME280;57876;47.792;12.960;2023-04-02T14:59:05;96588.44;;;15.03;47.72
70434;BME280;57876;47.792;12.960;2023-04-02T15:01:39;96589.25;;;15.04;47.90
70434;BME280;57876;47.792;12.960;2023-04-02T15:04:30;96595.47;;;15.04;47.68
70434;BME280;57876;47.792;12.960;2023-04-02T15:07:02;96599.00;;;15.05;47.89
70434;BME280;57876;47.792;12.960;2023-04-02T15:09:36;96596.63;;;15.03;48.05
70434;BME280;57876;47.792;12.960;2023-04-02T15:12:22;96601.41;;;15.06;47.99
70434;BME280;57876;47.792;12.960;2023-04-02T15:14:57;96595.47;;;15.04;47.56
70434;BME280;57876;47.792;12.960;2023-04-02T15:17:25;96598.22;;;15.04;47.87
70434;BME280;57876;47.792;12.960;2023-04-02T15:19:56;96597.41;;;15.04;47.90
70434;BME280;57876;47.792;12.960;2023-04-02T15:22:34;96600.94;;;15.04;47.86
70434;BME280;57876;47.792;12.960;2023-04-02T15:25:25;96604.94;;;15.07;47.75
70434;BME280;57876;47.792;12.960;2023-04-02T15:28:17;96600.63;;;15.06;47.80
70434;BME280;57876;47.792;12.960;2023-04-02T15:30:44;96609.59;;;15.06;47.81
70434;BME280;57876;47.792;12.960;2023-04-02T15:35:59;96611.97;;;15.08;47.92
70434;BME280;57876;47.792;12.960;2023-04-02T15:38:36;96607.66;;;15.07;47.97
70434;BME280;57876;47.792;12.960;2023-04-02T15:41:09;96611.97;;;15.08;47.92
70434;BME280;57876;47.792;12.960;2023-04-02T15:43:46;96619.34;;;15.07;47.81
70434;BME280;57876;47.792;12.960;2023-04-02T15:48:50;96628.66;;;15.06;47.94
70434;BME280;57876;47.792;12.960;2023-04-02T15:51:42;96632.66;;;15.09;47.86
70434;BME280;57876;47.792;12.960;2023-04-02T15:54:21;96644.38;;;15.09;47.79
70434;BME280;57876;47.792;12.960;2023-04-02T16:10:20;96659.91;;;15.09;47.81
70434;BME280;57876;47.792;12.960;2023-04-02T16:12:49;96651.41;;;15.10;47.96
70434;BME280;57876;47.792;12.960;2023-04-02T16:15:23;96665.34;;;15.09;47.86
70434;BME280;57876;47.792;12.960;2023-04-02T16:17:55;96668.88;;;15.09;47.90
70434;BME280;57876;47.792;12.960;2023-04-02T16:20:33;96659.13;;;15.08;48.02
70434;BME280;57876;47.792;12.960;2023-04-02T16:23:18;96665.03;;;15.10;48.01
70434;BME280;57876;47.792;12.960;2023-04-02T16:25:52;96678.63;;;15.10;47.91
70434;BME280;57876;47.792;12.960;2023-04-02T16:28:28;96662.44;;;15.05;48.00